Air Resources Laboratory banner image
Air Resources Laboratory web site National Oceanic and Atmospheric Administration (NOAA)

ms metar


KBIX 171055Z AUTO 00000KT 10SM OVC150 24/23 A2992 RMK AO2 SLP135 T02400226=
KCBM 171055Z AUTO 00000KT 10SM -RA SCT047 BKN070 23/20 A2995 RMK AO2 RAB53
 SLP142 P0002 T02260201 TSNO $=
KGLH 171053Z AUTO 36005KT 10SM SCT020 BKN060 24/22 A2995 RMK AO2 SLP148
 T02390222=
KGPT 171053Z AUTO 31003KT 10SM CLR 24/23 A2993 RMK AO2 SLP134 T02390228=
KGTR 171056Z 35003KT 10SM BKN046 BKN055 OVC070 22/21 A2999 RMK AO2 LTG DSNT W
 AND NW SLP159 T02220206=
KGWO 171053Z AUTO 09010KT 10SM BKN055 25/21 A2994 RMK AO2 SLP137 T02500206=
KHBG 171053Z AUTO 00000KT 10SM CLR 23/22 A2996 RMK AO2 SLP143 T02280222=
KHEZ 171056Z AUTO 12004KT 10SM CLR 24/23 A2997 RMK AO2 SLP145 T02440233=
KHKS 171053Z AUTO 22003KT 10SM CLR 24/22 A2996 RMK AO2 SLP135 T02440217=
KJAN 171054Z 00000KT 10SM CLR 23/22 A2996 RMK AO2 SLP140 T02280217=
KMCB 171053Z AUTO 00000KT 10SM CLR 23/22 A2997 RMK AO2 SLP141 T02330222=
KNMM 171056Z 00000KT 6SM BR FEW044 21/21 A2997 RMK AO2 SLP158 T02110206 $=
KOLV 171055Z AUTO 08005KT 4SM BR BKN005 BKN029 OVC065 20/20 A2999 RMK A01 P0025=
KPIB 171056Z AUTO 00000KT 3SM BR CLR 22/22 A2997 RMK AO2 SLP147 T02170217=
KPQL 171053Z AUTO 00000KT 7SM CLR 23/23 A2994 RMK AO2 SLP140 T02330228=
KTUP 171053Z 00000KT 9SM FEW009 BKN036 OVC065 23/20 A3001 RMK AO2 LTG DSNT S
 AND SW RAB0957E09 SLP156 P0001 T02280200=
KUOX 171055Z AUTO 05006KT 9SM VCTS OVC036 21/20 A3002 RMK AO2 LTG DSNT ALQDS=